Currently 88°F in Murrieta, California, USA
88°F
89°F / 66°F
calm
0.00"
Thursday, June 17, 2021 10:40 AM PDT

Murrieta, California Weather Summary
Last 36 Hours

Temperature Winds Hourly Humidity Dewpoint
Time Report Norm Report Norm Max Gusts Precip. Rpt. Norm Rpt. Norm Pressure
1Thu 10:40 AM  87.9°F  76°F  calm  4 mph  none  0.00"  38%  54%  58°F  58°F  N/A
2Thu 10:32 AM  88.7°F  76°F  calm  4 mph  none  ----  36%  55%  57°F  58°F  N/A
Thu 10:00 AM  88.4°F  73°F  calm  3 mph  none  0.00"  36%  61%  58°F  59°F  N/A
Thu 09:00 AM  82.4°F  69°F  calm  2 mph  none  0.00"  43%  72%  57°F  59°F  N/A
Thu 08:00 AM  77.3°F  64°F  calm  1 mph  none  0.00"  53%  82%  58°F  58°F  N/A
Thu 07:00 AM  70.0°F  60°F  calm  1 mph  none  0.00"  60%  87%  55°F  56°F  N/A
Thu 06:00 AM  66.4°F  57°F  calm  1 mph  none  0.00"  65%  89%  54°F  54°F  N/A
3Thu 05:57 AM  66.2°F  57°F  calm  1 mph  none  ----  66%  89%  54°F  54°F  N/A
Thu 05:00 AM  67.4°F  57°F  calm  1 mph  none  0.00"  63%  89%  54°F  54°F  N/A
Thu 04:00 AM  67.8°F  58°F  calm  1 mph  none  0.00"  61%  88%  53°F  54°F  N/A
Thu 03:00 AM  68.2°F  58°F  calm  1 mph  none  0.00"  59%  87%  53°F  54°F  N/A
Thu 02:00 AM  69.0°F  59°F  calm  1 mph  none  0.00"  59%  86%  54°F  55°F  N/A
Thu 01:00 AM  69.6°F  60°F  calm  2 mph  none  0.00"  61%  85%  55°F  55°F  N/A
Thu 12:00 AM  69.8°F  61°F  calm  2 mph  none  0.00"  57%  84%  53°F  56°F  N/A
Wed 11:00 PM  71.9°F  62°F  calm  3 mph  none  0.00"  56%  83%  55°F  56°F  N/A
Wed 10:00 PM  73.2°F  63°F  calm  4 mph  none  0.00"  57%  81%  57°F  57°F  N/A
Wed 09:00 PM  76.8°F  65°F  calm  6 mph  none  0.00"  47%  78%  54°F  58°F  N/A
Wed 08:00 PM  80.1°F  68°F  calm  8 mph  none  0.00"  39%  71%  52°F  58°F  N/A
Wed 07:00 PM  80.5°F  73°F  calm  8 mph  none  0.00"  34%  62%  49°F  58°F  N/A
Wed 06:00 PM  80.6°F  76°F  calm  10 mph  none  0.00"  40%  54%  53°F  57°F  N/A
Wed 05:00 PM  79.4°F  79°F  calm  11 mph  none  0.00"  44%  48%  55°F  57°F  N/A
Wed 04:00 PM  82.9°F  81°F  calm  11 mph  none  0.00"  38%  44%  54°F  57°F  N/A
Wed 03:00 PM  84.6°F  82°F  calm  11 mph  none  0.00"  38%  43%  55°F  56°F  N/A
Wed 02:00 PM  90.7°F  82°F  calm  10 mph  none  0.00"  31%  42%  55°F  56°F  N/A
Wed 01:00 PM  90.3°F  82°F  calm  8 mph  none  0.00"  31%  43%  55°F  56°F  N/A
Wed 12:00 PM  88.2°F  80°F  calm  7 mph  none  0.00"  35%  46%  56°F  57°F  N/A
Wed 11:00 AM  86.5°F  77°F  calm  5 mph  none  0.00"  40%  52%  58°F  58°F  N/A
Wed 10:00 AM  83.8°F  73°F  calm  3 mph  none  0.00"  44%  62%  59°F  58°F  N/A
Wed 09:00 AM  81.9°F  68°F  calm  2 mph  none  0.00"  47%  73%  59°F  59°F  N/A
Wed 08:00 AM  75.5°F  64°F  calm  1 mph  none  0.00"  60%  82%  60°F  58°F  N/A
Wed 07:00 AM  69.5°F  59°F  calm  1 mph  none  0.00"  72%  87%  60°F  56°F  N/A
Wed 06:00 AM  67.2°F  57°F  calm  1 mph  none  0.00"  74%  90%  58°F  54°F  N/A
Wed 05:00 AM  67.0°F  57°F  calm  1 mph  none  0.00"  74%  89%  58°F  54°F  N/A
Wed 04:00 AM  67.3°F  58°F  calm  1 mph  none  0.00"  72%  88%  58°F  54°F  N/A
Wed 03:00 AM  68.0°F  58°F  calm  1 mph  none  0.00"  71%  88%  58°F  54°F  N/A
Wed 02:00 AM  69.4°F  59°F  calm  1 mph  none  0.00"  68%  87%  58°F  55°F  N/A
Wed 01:00 AM  71.2°F  60°F  calm  2 mph  none  0.00"  61%  86%  57°F  55°F  N/A
Wed 12:00 AM  71.6°F  60°F  calm  2 mph  none  0.00"  65%  85%  59°F  55°F  N/A
Tue 11:00 PM  71.4°F  61°F  calm  3 mph  none  0.00"  66%  83%  59°F  56°F  N/A

  1. Current weather data. No green row appears if the current weather data is also the high or low for the current day.
  2. High temperature for the current day.
  3. Low temperature for the current day.

The Murrieta weather pages are a service of WeatherCurrents. Murrieta, California is located in the Temecula Valley, in southwestern Riverside County, at the junctions of the Interstate 15 and 215 highways.
Copyright ©2021  WeatherCurrents. All rights reserved. - Submit questions and comments - Privacy Policy

This page automatically refreshes every 10 minutes.